Time;durP1;ratioP1;P1;durP2;ratioP2;P2;SDS_P1;SDS_P2;PMS_P1;PMS_P2;Temp;Humidity;BMP_temperature;BMP_pressure;BME280_temperature;BME280_humidity;BME280_pressure;Samples;Min_cycle;Max_cycle;Signal;HPM_P1;HPM_P2
2023/08/30 00:01:35;;;;;;;;;;;;;;;16.95;59.24;99887.25;4960773;28;6868;-76
2023/08/30 00:04:00;;;;;;;;;;;;;;;16.90;59.35;99881.13;4968469;28;6980;-74
2023/08/30 00:06:26;;;;;;;;;;;;;;;16.87;59.25;99881.09;4956057;28;6792;-74
2023/08/30 00:08:51;;;;;;;;;;;;;;;16.82;59.60;99881.00;4978059;28;6799;-75
2023/08/30 00:11:17;;;;;;;;;;;;;;;16.76;59.58;99884.38;4965879;28;6934;-74
2023/08/30 00:13:42;;;;;;;;;;;;;;;16.73;59.61;99884.34;4959968;28;7011;-73
2023/08/30 00:16:08;;;;;;;;;;;;;;;16.70;59.84;99878.25;4945084;28;7017;-76
2023/08/30 00:18:33;;;;;;;;;;;;;;;16.64;59.54;99874.72;4960463;28;6780;-75
2023/08/30 00:20:59;;;;;;;;;;;;;;;16.61;59.73;99877.28;4956360;28;7078;-72
2023/08/30 00:23:24;;;;;;;;;;;;;;;16.55;60.22;99874.59;4953319;28;7066;-75
2023/08/30 00:25:50;;;;;;;;;;;;;;;16.54;59.66;99872.00;4975821;28;6788;-76
2023/08/30 00:28:15;;;;;;;;;;;;;;;16.49;59.99;99869.34;4959221;28;7169;-76
2023/08/30 00:30:41;;;;;;;;;;;;;;;16.44;60.15;99864.09;4959417;28;6975;-75
2023/08/30 00:33:06;;;;;;;;;;;;;;;16.42;60.45;99868.38;4959886;28;7024;-74
2023/08/30 00:35:32;;;;;;;;;;;;;;;16.37;60.32;99870.91;4957326;28;6804;-76
2023/08/30 00:37:57;;;;;;;;;;;;;;;16.36;60.64;99863.09;4977464;28;7151;-75
2023/08/30 00:40:24;;;;;;;;;;;;;;;16.34;61.03;99865.66;4963660;28;6784;-75
2023/08/30 00:42:50;;;;;;;;;;;;;;;16.33;60.89;99860.47;4973410;28;6804;-74
2023/08/30 00:45:15;;;;;;;;;;;;;;;16.29;60.75;99858.66;4961620;28;6800;-73
2023/08/30 00:47:41;;;;;;;;;;;;;;;16.27;60.97;99868.13;4974912;28;6852;-75
2023/08/30 00:50:06;;;;;;;;;;;;;;;16.26;60.74;99863.81;4959596;28;7239;-76
2023/08/30 00:52:32;;;;;;;;;;;;;;;16.21;60.91;99864.56;4949514;28;6962;-74
2023/08/30 00:54:58;;;;;;;;;;;;;;;16.21;61.12;99856.81;4963458;28;6788;-75
2023/08/30 00:57:24;;;;;;;;;;;;;;;16.19;61.25;99853.34;4959389;28;6827;-75
2023/08/30 00:59:51;;;;;;;;;;;;;;;16.19;61.47;99850.75;4965701;28;6860;-75
2023/08/30 01:02:17;;;;;;;;;;;;;;;16.19;61.39;99850.75;4945560;28;6982;-75
2023/08/30 01:04:43;;;;;;;;;;;;;;;16.22;61.66;99840.50;4980875;28;6784;-75
2023/08/30 01:07:08;;;;;;;;;;;;;;;16.26;62.09;99845.69;4962043;28;6788;-76
2023/08/30 01:09:34;;;;;;;;;;;;;;;16.29;62.32;99840.56;4948611;28;6970;-74
2023/08/30 01:12:05;;;;;;;;;;;;;;;16.30;61.74;99835.44;4974227;28;6855;-74
2023/08/30 01:14:38;;;;;;;;;;;;;;;16.32;61.72;99835.44;4966768;28;6816;-73
2023/08/30 01:17:05;;;;;;;;;;;;;;;16.32;61.96;99838.03;4949628;28;7202;-75
2023/08/30 01:19:53;;;;;;;;;;;;;;;16.32;62.04;99831.16;4981374;28;6822;-74
2023/08/30 01:22:57;;;;;;;;;;;;;;;16.32;61.81;99830.25;4963970;28;7032;-73
2023/08/30 01:25:35;;;;;;;;;;;;;;;16.30;61.77;99826.78;4963780;28;6812;-74
2023/08/30 01:28:05;;;;;;;;;;;;;;;16.32;62.08;99825.09;4961375;28;6812;-75
2023/08/30 01:30:33;;;;;;;;;;;;;;;16.36;62.25;99826.91;4942302;28;7007;-75
2023/08/30 01:33:04;;;;;;;;;;;;;;;16.41;62.53;99816.63;4965467;28;6989;-75
2023/08/30 01:35:32;;;;;;;;;;;;;;;16.45;62.03;99810.63;4980289;28;6816;-75
2023/08/30 01:38:03;;;;;;;;;;;;;;;16.50;61.87;99809.84;4940408;28;7304;-75
2023/08/30 01:40:33;;;;;;;;;;;;;;;16.54;62.24;99810.75;4964888;28;6997;-75
2023/08/30 01:42:59;;;;;;;;;;;;;;;16.57;62.03;99813.41;4958292;28;6832;-75
2023/08/30 01:45:27;;;;;;;;;;;;;;;16.59;61.95;99813.41;4946348;28;7190;-75
2023/08/30 01:47:54;;;;;;;;;;;;;;;16.59;61.77;99818.59;4950514;28;7297;-74
2023/08/30 01:50:21;;;;;;;;;;;;;;;16.58;62.01;99812.56;4946775;28;7159;-76
2023/08/30 01:52:47;;;;;;;;;;;;;;;16.57;61.70;99816.00;4950571;28;6959;-75
2023/08/30 01:55:14;;;;;;;;;;;;;;;16.57;61.57;99815.13;4948144;28;7442;-75
2023/08/30 01:57:39;;;;;;;;;;;;;;;16.55;61.76;99807.31;4981597;28;6804;-73
2023/08/30 02:00:05;;;;;;;;;;;;;;;16.56;62.18;99808.22;4978190;28;6815;-74
2023/08/30 02:02:31;;;;;;;;;;;;;;;16.55;61.92;99803.88;4946298;28;7055;-76
2023/08/30 02:04:57;;;;;;;;;;;;;;;16.57;62.09;99809.94;4980857;28;6864;-75
2023/08/30 02:07:31;;;;;;;;;;;;;;;16.58;62.04;99812.56;4948495;28;6784;-73
2023/08/30 02:09:57;;;;;;;;;;;;;;;16.59;61.87;99811.72;4982209;28;6804;-75
2023/08/30 02:12:27;;;;;;;;;;;;;;;16.62;61.81;99814.34;4963219;28;6863;-74
2023/08/30 02:14:54;;;;;;;;;;;;;;;16.63;62.26;99810.03;4977290;28;7777;-74
2023/08/30 02:17:20;;;;;;;;;;;;;;;16.64;62.01;99807.47;4961219;28;7085;-73
2023/08/30 02:19:47;;;;;;;;;;;;;;;16.66;62.02;99799.72;4964820;28;7098;-70
2023/08/30 02:22:12;;;;;;;;;;;;;;;16.69;62.13;99797.16;4960847;28;7361;-73
2023/08/30 02:24:38;;;;;;;;;;;;;;;16.72;61.93;99798.94;4966811;28;6784;-72
2023/08/30 02:27:04;;;;;;;;;;;;;;;16.73;61.74;99798.09;4972934;28;6938;-69
2023/08/30 02:29:29;;;;;;;;;;;;;;;16.72;61.76;99793.75;4944290;28;7231;-73
2023/08/30 02:31:55;;;;;;;;;;;;;;;16.71;61.43;99792.91;4977796;28;6996;-71
2023/08/30 02:34:20;;;;;;;;;;;;;;;16.70;61.28;99798.06;4945667;28;6804;-70
2023/08/30 02:36:46;;;;;;;;;;;;;;;16.70;61.81;99800.63;4977375;28;6943;-71
2023/08/30 02:39:13;;;;;;;;;;;;;;;16.68;61.68;99797.16;4962335;28;7667;-71
2023/08/30 02:41:40;;;;;;;;;;;;;;;16.66;61.90;99795.44;4962699;28;6796;-73
2023/08/30 02:44:07;;;;;;;;;;;;;;;16.69;61.83;99796.31;4978503;28;6972;-71
2023/08/30 02:46:33;;;;;;;;;;;;;;;16.73;61.91;99798.09;4965013;28;6804;-69
2023/08/30 02:48:58;;;;;;;;;;;;;;;16.77;62.32;99798.16;4962076;28;6784;-70
2023/08/30 02:51:24;;;;;;;;;;;;;;;16.86;62.46;99801.69;4982027;28;6819;-72
2023/08/30 02:53:49;;;;;;;;;;;;;;;16.93;62.75;99790.59;4978284;28;6987;-71
2023/08/30 02:56:15;;;;;;;;;;;;;;;17.01;62.21;99791.59;4963242;28;6791;-69
2023/08/30 02:58:41;;;;;;;;;;;;;;;17.10;62.24;99782.19;4946166;28;6955;-70
2023/08/30 03:01:06;;;;;;;;;;;;;;;17.17;62.00;99778.78;4960206;28;7150;-70
2023/08/30 03:03:32;;;;;;;;;;;;;;;17.23;62.27;99778.00;4962390;28;6851;-71
2023/08/30 03:05:57;;;;;;;;;;;;;;;17.27;62.59;99770.28;4965161;28;6920;-70
2023/08/30 03:08:23;;;;;;;;;;;;;;;17.33;62.26;99772.06;4943110;28;6978;-71
2023/08/30 03:10:49;;;;;;;;;;;;;;;17.39;62.24;99766.09;4959669;28;6962;-69
2023/08/30 03:13:14;;;;;;;;;;;;;;;17.44;61.66;99761.81;4927816;28;7009;-72
2023/08/30 03:15:39;;;;;;;;;;;;;;;17.50;61.96;99761.88;4951829;28;6840;-71
2023/08/30 03:18:05;;;;;;;;;;;;;;;17.53;61.95;99759.31;4946208;28;6936;-70
2023/08/30 03:20:30;;;;;;;;;;;;;;;17.58;61.67;99762.81;4980470;28;6799;-73
2023/08/30 03:22:57;;;;;;;;;;;;;;;17.63;61.41;99760.28;4973549;28;6959;-73
2023/08/30 03:25:23;;;;;;;;;;;;;;;17.67;61.82;99759.44;4941437;28;7416;-71
2023/08/30 03:27:49;;;;;;;;;;;;;;;17.72;61.07;99756.88;4973400;28;6788;-71
2023/08/30 03:30:14;;;;;;;;;;;;;;;17.75;61.05;99759.47;4941865;28;7428;-72
2023/08/30 03:32:40;;;;;;;;;;;;;;;17.78;61.11;99754.34;4935299;28;7123;-72
2023/08/30 03:35:06;;;;;;;;;;;;;;;17.83;61.20;99751.78;4939664;28;7360;-72
2023/08/30 03:37:31;;;;;;;;;;;;;;;17.84;60.75;99754.38;4951391;28;6807;-71
2023/08/30 03:39:57;;;;;;;;;;;;;;;17.88;61.39;99756.16;4943542;28;6776;-70
2023/08/30 03:42:22;;;;;;;;;;;;;;;17.91;61.24;99756.16;4965473;28;6780;-70
2023/08/30 03:44:47;;;;;;;;;;;;;;;17.93;60.39;99752.72;4936787;28;7380;-71
2023/08/30 03:47:13;;;;;;;;;;;;;;;17.96;60.77;99750.13;4936524;28;7311;-70
2023/08/30 03:49:39;;;;;;;;;;;;;;;17.98;60.62;99754.47;4951301;28;6772;-72
2023/08/30 03:52:04;;;;;;;;;;;;;;;17.99;60.36;99747.59;4962744;28;6799;-69
2023/08/30 03:54:31;;;;;;;;;;;;;;;18.01;60.55;99748.47;4952290;28;6784;-72
2023/08/30 03:56:56;;;;;;;;;;;;;;;18.01;61.02;99751.06;4958260;28;7023;-69
2023/08/30 03:59:22;;;;;;;;;;;;;;;18.02;60.46;99747.59;4968856;28;6991;-69
2023/08/30 04:01:48;;;;;;;;;;;;;;;18.05;60.32;99745.03;4964208;28;7279;-71
2023/08/30 04:04:14;;;;;;;;;;;;;;;18.08;60.73;99749.41;4941724;28;6958;-71
2023/08/30 04:06:40;;;;;;;;;;;;;;;18.10;60.58;99742.50;4964469;28;7077;-70
2023/08/30 04:09:05;;;;;;;;;;;;;;;18.12;60.63;99744.25;4946836;28;7240;-72
2023/08/30 04:11:31;;;;;;;;;;;;;;;18.16;60.09;99745.13;4943767;28;7590;-70
2023/08/30 04:13:56;;;;;;;;;;;;;;;18.15;60.08;99741.66;4967162;28;6994;-70
2023/08/30 04:16:22;;;;;;;;;;;;;;;18.17;59.94;99742.56;4943499;28;7588;-69
2023/08/30 04:18:47;;;;;;;;;;;;;;;18.18;60.63;99739.09;4960246;28;7129;-70
2023/08/30 04:21:12;;;;;;;;;;;;;;;18.20;60.76;99727.88;4971200;28;9109;-71
2023/08/30 04:23:38;;;;;;;;;;;;;;;18.21;60.14;99727.00;4943661;28;7220;-69
2023/08/30 04:26:03;;;;;;;;;;;;;;;18.22;60.02;99727.03;4963830;28;6780;-73
2023/08/30 04:28:29;;;;;;;;;;;;;;;18.24;59.83;99734.78;4955816;28;6812;-70
2023/08/30 04:30:55;;;;;;;;;;;;;;;18.24;59.89;99727.91;4942718;28;7574;-70
2023/08/30 04:33:20;;;;;;;;;;;;;;;18.26;59.76;99725.31;4944152;28;6844;-72
2023/08/30 04:35:53;;;;;;;;;;;;;;;18.26;59.74;99720.97;4972768;28;6954;-72
2023/08/30 04:38:19;;;;;;;;;;;;;;;18.28;59.64;99718.41;4979071;28;6800;-72
2023/08/30 04:40:45;;;;;;;;;;;;;;;18.27;59.31;99706.31;4947042;28;6991;-71
2023/08/30 04:43:11;;;;;;;;;;;;;;;18.29;59.36;99712.34;4974487;28;7297;-71
2023/08/30 04:45:36;;;;;;;;;;;;;;;18.30;60.00;99714.09;4962022;28;6809;-69
2023/08/30 04:48:02;;;;;;;;;;;;;;;18.31;59.28;99708.03;4947179;28;7043;-69
2023/08/30 04:50:27;;;;;;;;;;;;;;;18.32;59.22;99704.59;4951422;28;10047;-71
2023/08/30 04:52:53;;;;;;;;;;;;;;;18.36;59.48;99705.47;4961827;28;6796;-69
2023/08/30 04:55:18;;;;;;;;;;;;;;;18.37;59.02;99702.91;4960237;28;6800;-72
2023/08/30 04:57:44;;;;;;;;;;;;;;;18.40;59.11;99691.69;4977917;28;6917;-70
2023/08/30 05:00:12;;;;;;;;;;;;;;;18.42;58.71;99695.13;4955725;28;7284;-72
2023/08/30 05:02:38;;;;;;;;;;;;;;;18.43;59.13;99686.50;4958722;28;6820;-68
2023/08/30 05:05:03;;;;;;;;;;;;;;;18.43;59.00;99684.75;4979515;28;7305;-71
2023/08/30 05:07:29;;;;;;;;;;;;;;;18.44;58.98;99683.03;4939686;28;7033;-69
2023/08/30 05:09:54;;;;;;;;;;;;;;;18.44;58.64;99686.47;4966468;28;6792;-70
2023/08/30 05:12:20;;;;;;;;;;;;;;;18.44;58.58;99683.03;4964042;28;7168;-70
2023/08/30 05:14:45;;;;;;;;;;;;;;;18.45;58.62;99685.66;4964155;28;6858;-69
2023/08/30 05:17:11;;;;;;;;;;;;;;;18.49;58.82;99680.44;4963635;28;6943;-70
2023/08/30 05:19:36;;;;;;;;;;;;;;;18.51;58.48;99678.72;4945343;28;7019;-73
2023/08/30 05:22:02;;;;;;;;;;;;;;;18.54;58.45;99678.72;4977438;28;6807;-71
2023/08/30 05:24:28;;;;;;;;;;;;;;;18.57;58.13;99673.56;4942997;28;7026;-72
2023/08/30 05:26:54;;;;;;;;;;;;;;;18.60;57.93;99673.56;4963172;28;6888;-70
2023/08/30 05:29:19;;;;;;;;;;;;;;;18.64;58.15;99675.34;4959070;28;7249;-70
2023/08/30 05:31:44;;;;;;;;;;;;;;;18.68;57.91;99679.66;4972787;28;6831;-69
2023/08/30 05:34:10;;;;;;;;;;;;;;;18.72;57.95;99671.00;4964275;28;7490;-69
2023/08/30 05:36:36;;;;;;;;;;;;;;;18.78;57.74;99666.72;4943961;28;6784;-72
2023/08/30 05:39:03;;;;;;;;;;;;;;;18.85;57.65;99663.28;4957827;28;6824;-71
2023/08/30 05:41:28;;;;;;;;;;;;;;;18.92;57.26;99665.00;4948823;28;6987;-69
2023/08/30 05:43:54;;;;;;;;;;;;;;;18.98;57.70;99652.03;4942290;28;7445;-72
2023/08/30 05:46:19;;;;;;;;;;;;;;;19.05;57.35;99650.34;4977433;28;8249;-70
2023/08/30 05:48:45;;;;;;;;;;;;;;;19.10;56.85;99652.94;4962480;28;7380;-70
2023/08/30 05:51:10;;;;;;;;;;;;;;;19.15;56.78;99651.22;4946029;28;7257;-70
2023/08/30 05:53:36;;;;;;;;;;;;;;;19.19;57.05;99642.56;4977579;28;6796;-69
2023/08/30 05:56:02;;;;;;;;;;;;;;;19.24;56.93;99642.56;4974331;28;6815;-70
2023/08/30 05:58:28;;;;;;;;;;;;;;;19.27;56.46;99638.22;4938885;28;6804;-71
2023/08/30 06:00:53;;;;;;;;;;;;;;;19.32;56.76;99642.59;4945195;28;6828;-71
2023/08/30 06:03:19;;;;;;;;;;;;;;;19.36;56.25;99633.91;4942572;28;6983;-71
2023/08/30 06:05:44;;;;;;;;;;;;;;;19.41;56.58;99630.44;4975763;28;7341;-69
2023/08/30 06:08:10;;;;;;;;;;;;;;;19.48;55.75;99631.28;4955335;28;6841;-71
2023/08/30 06:10:36;;;;;;;;;;;;;;;19.58;55.99;99626.97;4971807;28;7890;-73
2023/08/30 06:13:02;;;;;;;;;;;;;;;19.66;56.23;99626.94;4960303;28;6792;-69
2023/08/30 06:15:28;;;;;;;;;;;;;;;19.77;56.36;99629.53;4959900;28;7090;-69
2023/08/30 06:17:53;;;;;;;;;;;;;;;19.90;55.96;99625.16;4941301;28;6801;-70
2023/08/30 06:20:19;;;;;;;;;;;;;;;20.03;55.54;99623.41;4955574;28;6800;-71
2023/08/30 06:22:44;;;;;;;;;;;;;;;20.12;55.62;99620.78;4962535;28;6764;-70
2023/08/30 06:25:10;;;;;;;;;;;;;;;20.22;54.84;99619.00;4972157;28;6971;-70
2023/08/30 06:27:54;;;;;;;;;;;;;;;20.28;54.55;99613.81;4953683;28;7470;-69
2023/08/30 06:30:20;;;;;;;;;;;;;;;20.30;54.39;99612.03;4945429;28;6904;-70
2023/08/30 06:32:45;;;;;;;;;;;;;;;20.32;53.82;99610.28;4976621;28;6780;-70
2023/08/30 06:35:11;;;;;;;;;;;;;;;20.34;53.92;99612.91;4959061;28;6985;-70
2023/08/30 06:37:36;;;;;;;;;;;;;;;20.34;53.67;99608.53;4967760;28;7404;-72
2023/08/30 06:40:03;;;;;;;;;;;;;;;20.34;53.11;99603.34;4958871;28;7698;-70
2023/08/30 06:42:29;;;;;;;;;;;;;;;20.34;53.53;99608.53;4961384;28;7202;-70
2023/08/30 06:44:54;;;;;;;;;;;;;;;20.35;53.41;99605.06;4963988;28;6784;-70
2023/08/30 06:47:20;;;;;;;;;;;;;;;20.38;52.75;99599.88;4961883;28;6796;-70
2023/08/30 06:49:46;;;;;;;;;;;;;;;20.45;52.40;99597.22;4949080;28;7080;-71
2023/08/30 06:52:11;;;;;;;;;;;;;;;20.55;53.05;99591.06;4960382;28;6968;-70
2023/08/30 06:54:37;;;;;;;;;;;;;;;20.65;52.66;99591.91;4975415;28;6788;-70
2023/08/30 06:57:02;;;;;;;;;;;;;;;20.78;52.54;99597.91;4955418;28;7377;-69
2023/08/30 06:59:28;;;;;;;;;;;;;;;20.89;52.13;99590.91;4973681;28;6776;-69
2023/08/30 07:01:53;;;;;;;;;;;;;;;21.01;51.81;99586.47;4958961;28;7044;-71
2023/08/30 07:04:19;;;;;;;;;;;;;;;21.12;51.57;99584.63;4962023;28;7116;-69
2023/08/30 07:06:44;;;;;;;;;;;;;;;21.22;51.30;99583.66;4944095;28;7183;-69
2023/08/30 07:09:11;;;;;;;;;;;;;;;21.30;51.06;99582.75;4958721;28;6987;-70
2023/08/30 07:11:37;;;;;;;;;;;;;;;21.37;50.44;99584.41;4976558;28;6943;-68
2023/08/30 07:14:04;;;;;;;;;;;;;;;21.44;50.01;99585.22;4977140;28;7818;-69
2023/08/30 07:16:31;;;;;;;;;;;;;;;21.51;49.79;99584.28;4961852;28;6976;-71
2023/08/30 07:18:57;;;;;;;;;;;;;;;21.58;49.38;99587.69;4963120;28;6962;-69
2023/08/30 07:21:23;;;;;;;;;;;;;;;21.64;49.70;99583.28;4958067;28;6812;-72
2023/08/30 07:23:48;;;;;;;;;;;;;;;21.74;49.22;99585.81;4944462;28;6985;-69
2023/08/30 07:26:14;;;;;;;;;;;;;;;21.82;49.14;99588.31;4969901;28;7063;-71
2023/08/30 07:28:39;;;;;;;;;;;;;;;21.88;48.97;99591.75;4961441;28;6783;-69
2023/08/30 07:31:05;;;;;;;;;;;;;;;21.92;49.09;99589.94;4957917;28;6788;-69
2023/08/30 07:33:31;;;;;;;;;;;;;;;21.95;48.85;99592.53;4959101;28;6816;-68
2023/08/30 07:35:57;;;;;;;;;;;;;;;21.98;48.70;99596.84;4945430;28;6916;-68
2023/08/30 07:38:22;;;;;;;;;;;;;;;22.00;48.69;99600.31;4977215;28;6871;-69
2023/08/30 07:40:48;;;;;;;;;;;;;;;21.99;48.30;99601.19;4959529;28;6784;-69
2023/08/30 07:43:13;;;;;;;;;;;;;;;21.95;48.56;99600.34;4943923;28;8242;-70
2023/08/30 07:45:39;;;;;;;;;;;;;;;21.91;48.46;99606.47;4960193;28;6796;-71
2023/08/30 07:48:04;;;;;;;;;;;;;;;21.89;48.95;99603.03;4943276;28;6970;-69
2023/08/30 07:50:30;;;;;;;;;;;;;;;21.84;48.78;99605.69;4958170;28;7091;-70
2023/08/30 07:52:55;;;;;;;;;;;;;;;21.80;48.72;99597.91;4972799;28;6803;-69
2023/08/30 07:55:21;;;;;;;;;;;;;;;21.79;49.47;99597.06;4964830;28;6800;-72
2023/08/30 07:57:46;;;;;;;;;;;;;;;21.81;49.30;99589.22;4970235;28;7150;-70
2023/08/30 08:00:12;;;;;;;;;;;;;;;21.85;49.30;99596.13;4975098;28;6803;-72
2023/08/30 08:02:39;;;;;;;;;;;;;;;21.87;49.00;99595.22;4942079;28;6800;-69
2023/08/30 08:05:05;;;;;;;;;;;;;;;21.88;48.56;99596.09;4977300;28;7311;-71
2023/08/30 08:07:30;;;;;;;;;;;;;;;21.92;48.74;99605.59;4962649;28;7252;-70
2023/08/30 08:09:56;;;;;;;;;;;;;;;21.99;48.88;99598.59;4977735;28;7001;-69
2023/08/30 08:12:22;;;;;;;;;;;;;;;22.06;48.45;99584.56;4959800;28;7078;-70
2023/08/30 08:14:47;;;;;;;;;;;;;;;22.15;48.44;99591.44;4958962;28;7012;-69
2023/08/30 08:17:13;;;;;;;;;;;;;;;22.25;48.79;99589.53;4976749;28;6912;-69
2023/08/30 08:19:39;;;;;;;;;;;;;;;22.37;48.41;99589.41;4976667;28;6791;-70
2023/08/30 08:22:05;;;;;;;;;;;;;;;22.50;48.42;99589.25;4943697;28;7323;-70
2023/08/30 08:24:30;;;;;;;;;;;;;;;22.64;48.61;99571.63;4951620;28;6863;-72
2023/08/30 08:26:56;;;;;;;;;;;;;;;22.83;48.27;99572.22;4967937;28;6971;-69
2023/08/30 08:29:21;;;;;;;;;;;;;;;23.09;48.01;99570.94;4943706;28;7269;-69
2023/08/30 08:31:47;;;;;;;;;;;;;;;23.37;48.29;99556.53;4974448;28;7082;-69
2023/08/30 08:34:13;;;;;;;;;;;;;;;23.62;47.50;99564.78;4969598;28;7410;-70
2023/08/30 08:36:40;;;;;;;;;;;;;;;23.80;46.95;99554.84;4971934;28;6799;-70
2023/08/30 08:39:06;;;;;;;;;;;;;;;23.84;45.31;99553.88;4960103;28;7076;-69
2023/08/30 08:41:45;;;;;;;;;;;;;;;23.70;44.60;99562.00;4977766;28;6804;-72
2023/08/30 08:44:11;;;;;;;;;;;;;;;23.48;45.25;99567.66;4976221;28;6788;-72
2023/08/30 08:46:38;;;;;;;;;;;;;;;23.30;45.41;99566.25;4977247;28;7026;-70
2023/08/30 08:49:09;;;;;;;;;;;;;;;23.12;45.85;99560.41;4964493;28;6796;-71
2023/08/30 08:51:35;;;;;;;;;;;;;;;23.07;46.53;99558.78;4975340;28;6812;-70
2023/08/30 08:54:03;;;;;;;;;;;;;;;23.08;46.54;99557.88;4943918;28;6808;-73
2023/08/30 08:56:30;;;;;;;;;;;;;;;23.15;46.87;99554.28;4978022;28;6812;-70
2023/08/30 08:58:56;;;;;;;;;;;;;;;23.27;47.26;99555.78;4959202;28;7025;-71
2023/08/30 09:01:23;;;;;;;;;;;;;;;23.42;46.07;99552.94;4939482;28;6788;-71
2023/08/30 09:03:50;;;;;;;;;;;;;;;23.62;46.21;99551.69;4943542;28;6998;-69
2023/08/30 09:06:16;;;;;;;;;;;;;;;23.82;45.49;99553.94;4944765;28;7087;-70
2023/08/30 09:08:42;;;;;;;;;;;;;;;23.99;45.54;99553.56;4948259;28;6820;-71
2023/08/30 09:11:07;;;;;;;;;;;;;;;24.16;45.24;99549.78;4965940;28;6866;-71
2023/08/30 09:13:33;;;;;;;;;;;;;;;24.26;44.82;99548.69;4967359;28;6848;-69
2023/08/30 09:15:59;;;;;;;;;;;;;;;24.31;44.47;99547.69;4981016;28;6992;-72
2023/08/30 09:18:27;;;;;;;;;;;;;;;24.31;43.84;99550.31;4977043;28;6972;-70
2023/08/30 09:21:09;;;;;;;;;;;;;;;24.38;44.26;99546.66;4959939;28;9353;-71
2023/08/30 09:23:35;;;;;;;;;;;;;;;24.46;43.35;99543.88;4947330;28;7062;-72
2023/08/30 09:26:02;;;;;;;;;;;;;;;24.57;43.66;99554.94;4975770;28;7628;-69
2023/08/30 09:28:28;;;;;;;;;;;;;;;24.71;42.63;99545.91;4940478;28;7219;-69
2023/08/30 09:30:53;;;;;;;;;;;;;;;24.81;43.21;99558.78;4953642;28;7167;-70
2023/08/30 09:33:23;;;;;;;;;;;;;;;24.87;42.13;99563.03;4956049;28;7987;-69
2023/08/30 09:35:48;;;;;;;;;;;;;;;24.76;42.24;99552.75;4940316;28;6807;-69
2023/08/30 09:38:18;;;;;;;;;;;;;;;24.54;42.08;99569.00;4958418;28;8726;-74
2023/08/30 09:40:45;;;;;;;;;;;;;;;24.26;42.20;99569.63;4957122;28;7791;-70
2023/08/30 09:43:11;;;;;;;;;;;;;;;23.93;42.50;99574.63;4978248;28;8057;-71
2023/08/30 09:45:37;;;;;;;;;;;;;;;23.41;43.71;99587.81;4957798;28;7035;-71
2023/08/30 09:48:03;;;;;;;;;;;;;;;22.85;45.05;99586.09;4960954;28;6975;-70
2023/08/30 09:50:33;;;;;;;;;;;;;;;22.32;46.70;99604.25;4975131;28;7071;-72
2023/08/30 09:53:02;;;;;;;;;;;;;;;21.85;47.54;99601.34;4962574;28;8052;-71
2023/08/30 09:55:29;;;;;;;;;;;;;;;21.42;48.47;99600.88;4964470;28;6963;-69
2023/08/30 09:57:55;;;;;;;;;;;;;;;21.00;49.65;99601.22;4955613;28;7074;-70
2023/08/30 10:00:21;;;;;;;;;;;;;;;20.65;50.62;99597.97;4976463;28;7177;-72
2023/08/30 10:02:47;;;;;;;;;;;;;;;20.37;52.44;99594.66;4958490;28;7230;-69
2023/08/30 10:05:13;;;;;;;;;;;;;;;20.19;53.40;99593.03;4971795;28;6994;-73
2023/08/30 10:07:39;;;;;;;;;;;;;;;20.05;54.08;99593.94;4942877;28;6792;-72
2023/08/30 10:10:05;;;;;;;;;;;;;;;19.93;54.55;99589.63;4960600;28;6910;-69
2023/08/30 10:12:34;;;;;;;;;;;;;;;19.83;55.13;99588.78;4943668;28;6987;-69
2023/08/30 10:15:00;;;;;;;;;;;;;;;19.78;55.73;99590.50;4940783;28;6982;-71
2023/08/30 10:17:32;;;;;;;;;;;;;;;19.72;56.24;99585.34;4961361;28;6795;-72
2023/08/30 10:19:59;;;;;;;;;;;;;;;19.68;56.56;99581.00;4962172;28;7229;-69
2023/08/30 10:22:26;;;;;;;;;;;;;;;19.67;57.21;99587.97;4959091;28;6836;-69
2023/08/30 10:24:59;;;;;;;;;;;;;;;19.70;57.86;99582.75;4939034;28;7009;-69
2023/08/30 10:27:27;;;;;;;;;;;;;;;19.74;57.99;99582.72;4959353;28;7008;-69
2023/08/30 10:29:54;;;;;;;;;;;;;;;19.78;58.25;99587.06;4975268;28;6936;-69
2023/08/30 10:32:22;;;;;;;;;;;;;;;19.81;58.24;99580.13;4955648;28;6985;-69
2023/08/30 10:34:49;;;;;;;;;;;;;;;19.83;58.44;99582.69;4961809;28;6819;-72
2023/08/30 10:37:15;;;;;;;;;;;;;;;19.86;58.79;99595.72;4956934;28;6884;-72
2023/08/30 10:39:42;;;;;;;;;;;;;;;19.84;58.82;99594.81;4937664;28;7290;-69
2023/08/30 10:42:13;;;;;;;;;;;;;;;19.83;58.88;99587.91;4971997;28;7019;-72
2023/08/30 10:44:48;;;;;;;;;;;;;;;19.77;58.87;99588.78;4961099;28;6824;-69
2023/08/30 10:47:20;;;;;;;;;;;;;;;19.69;58.72;99585.34;4959659;28;6872;-70
2023/08/30 10:49:49;;;;;;;;;;;;;;;19.60;59.43;99591.44;4960019;28;7826;-70
2023/08/30 10:52:14;;;;;;;;;;;;;;;19.55;59.13;99588.84;4939434;28;6820;-70
2023/08/30 10:54:40;;;;;;;;;;;;;;;19.50;59.66;99584.53;4922792;28;6974;-70
2023/08/30 10:57:13;;;;;;;;;;;;;;;19.46;59.59;99591.47;4956633;28;7447;-70
2023/08/30 10:59:40;;;;;;;;;;;;;;;19.43;59.79;99592.31;4973566;28;7152;-69
2023/08/30 11:02:06;;;;;;;;;;;;;;;19.43;60.52;99583.69;4940224;28;6820;-72
2023/08/30 11:04:31;;;;;;;;;;;;;;;19.46;60.03;99588.84;4964771;28;7242;-70
2023/08/30 11:06:57;;;;;;;;;;;;;;;19.49;60.51;99588.00;4956347;28;6808;-69
2023/08/30 11:09:24;;;;;;;;;;;;;;;19.52;60.72;99581.06;4943524;28;7257;-70
2023/08/30 11:11:51;;;;;;;;;;;;;;;19.57;60.84;99584.50;4953005;28;6819;-73
2023/08/30 11:14:18;;;;;;;;;;;;;;;19.66;61.27;99575.84;4962929;28;6819;-70
2023/08/30 11:16:44;;;;;;;;;;;;;;;19.82;61.60;99586.16;4977041;28;6816;-72
2023/08/30 11:19:11;;;;;;;;;;;;;;;19.91;60.99;99577.50;4975956;28;6836;-71
2023/08/30 11:21:44;;;;;;;;;;;;;;;19.98;60.87;99582.69;4935026;28;7139;-72
2023/08/30 11:24:09;;;;;;;;;;;;;;;20.00;61.12;99582.69;4936783;28;7003;-69
2023/08/30 11:26:35;;;;;;;;;;;;;;;20.00;60.83;99582.69;4938095;28;7051;-69
2023/08/30 11:29:04;;;;;;;;;;;;;;;19.94;60.54;99582.72;4961385;28;6792;-68
2023/08/30 11:31:30;;;;;;;;;;;;;;;19.83;60.60;99582.69;4955238;28;6967;-69
2023/08/30 11:33:58;;;;;;;;;;;;;;;19.71;60.47;99581.03;4976760;28;7307;-72
2023/08/30 11:36:30;;;;;;;;;;;;;;;19.65;61.02;99594.03;4969519;28;7803;-70
2023/08/30 11:38:56;;;;;;;;;;;;;;;19.61;60.97;99581.91;4938095;28;6972;-70
2023/08/30 11:41:23;;;;;;;;;;;;;;;19.56;61.00;99576.72;4972664;28;7119;-70
2023/08/30 11:43:49;;;;;;;;;;;;;;;19.50;61.31;99577.56;4942214;28;6801;-73
2023/08/30 11:46:16;;;;;;;;;;;;;;;19.46;61.33;99578.47;4958490;28;8561;-70
2023/08/30 11:48:42;;;;;;;;;;;;;;;19.42;61.77;99579.34;4956897;28;6807;-70
2023/08/30 11:51:08;;;;;;;;;;;;;;;19.44;61.82;99575.00;4974199;28;6800;-73
2023/08/30 11:53:35;;;;;;;;;;;;;;;19.49;62.13;99578.44;4952449;28;7678;-73
2023/08/30 11:56:00;;;;;;;;;;;;;;;19.55;62.38;99578.44;4937549;28;7776;-73
2023/08/30 11:58:26;;;;;;;;;;;;;;;19.64;62.41;99571.50;4959732;28;6796;-73
2023/08/30 12:00:54;;;;;;;;;;;;;;;19.71;62.03;99578.44;4942191;28;6989;-73
2023/08/30 12:03:20;;;;;;;;;;;;;;;19.72;62.39;99577.56;4958882;28;6793;-73
2023/08/30 12:05:49;;;;;;;;;;;;;;;19.70;62.05;99566.28;4956872;28;6800;-73
2023/08/30 12:08:24;;;;;;;;;;;;;;;19.67;62.07;99571.50;4957695;28;6876;-73
2023/08/30 12:10:50;;;;;;;;;;;;;;;19.64;61.84;99569.75;4972618;28;6816;-73
2023/08/30 12:13:23;;;;;;;;;;;;;;;19.61;62.22;99561.97;4941847;28;7023;-73
2023/08/30 12:15:49;;;;;;;;;;;;;;;19.61;62.05;99564.56;4934192;28;7734;-72
2023/08/30 12:18:15;;;;;;;;;;;;;;;19.64;62.37;99566.31;4962646;28;7079;-72
2023/08/30 12:20:52;;;;;;;;;;;;;;;19.69;62.99;99564.53;4944599;28;7120;-73
2023/08/30 12:23:29;;;;;;;;;;;;;;;19.83;63.45;99564.50;4937633;28;7878;-74
2023/08/30 12:26:09;;;;;;;;;;;;;;;20.01;63.36;99566.22;4925484;28;7207;-73
2023/08/30 12:28:36;;;;;;;;;;;;;;;20.17;63.23;99567.00;4939592;28;7222;-73
2023/08/30 12:31:10;;;;;;;;;;;;;;;20.31;63.00;99569.53;4944088;28;6839;-73
2023/08/30 12:33:35;;;;;;;;;;;;;;;20.46;63.13;99567.72;4956197;28;6887;-73
2023/08/30 12:36:01;;;;;;;;;;;;;;;20.63;63.08;99571.06;4960364;28;6784;-73
2023/08/30 12:38:27;;;;;;;;;;;;;;;20.74;62.46;99570.13;4959228;28;6800;-74
2023/08/30 12:40:54;;;;;;;;;;;;;;;20.78;62.34;99569.25;4944250;28;7104;-74
2023/08/30 12:43:20;;;;;;;;;;;;;;;20.83;62.16;99571.84;4957094;28;7269;-74
2023/08/30 12:45:47;;;;;;;;;;;;;;;20.86;62.06;99579.63;4954983;28;7230;-74
2023/08/30 12:48:16;;;;;;;;;;;;;;;20.86;61.78;99583.13;4944415;28;9276;-73
2023/08/30 12:50:44;;;;;;;;;;;;;;;20.82;61.53;99589.22;4954487;28;7514;-73
2023/08/30 12:53:10;;;;;;;;;;;;;;;20.77;61.41;99581.41;4943687;28;7165;-73
2023/08/30 12:55:35;;;;;;;;;;;;;;;20.70;61.33;99577.09;4946816;28;6811;-74